PWSweather.com
Personal Weather Stations
Station Observations
SEAWX98122
Squire Park, Seattle, WA 98122

Squire ParkSeattle, WA 98122

Lat: 47.61174774, Lon: -122.31365204

Elevation: 324

Station Type: Davis Vantage Pro 2

https://www.seattleweather.org

Latest ConditionsUpdated 4:55:00 PM PDT Monday, Jul 16, 2018
Currently Today's Max Today's Min Today's Average
Temperature 89.7°F32.1°C 91.8°F33.2°C 63.1°F17.3°C 77.0°F25.0°C
Dew Point 47.0°F8.3°C 56.3°F13.5°C 45.5°F7.5°C 50.6°F10.3°C
Winds 6.9 mph NW11.1 kmh NW 13.8 mph -22.2 kmh - - 5.0 mph 8.0 kmh
Wind Gusts 9.2 mph14.8 kmh 17.3 mph27.8 kmh - -
Humidity 23% 64% 22% 41%
Pressure 29.98 in1015.2 mb 30.03 in1016.9 mb 29.97 in1014.9 mb -
Hour Temp Dew Point Humidity Winds Wind Gusts Pressure Precip Precip Rate Daily Precip Total
04:55 PM 89.7°F32.1°C 47.0°F8.3°C 23% 6.9 mph NW11.1 kmh NW 9.2 mph14.8 kmh 29.98 in1015.2 mb - 0.00 in0.0 mm 0.00 in0.0 mm
04:50 PM 90.6°F32.6°C 46.6°F8.1°C 22% 9.2 mph NW14.8 kmh NW 9.2 mph14.8 kmh 29.98 in1015.2 mb - 0.00 in0.0 mm 0.00 in0.0 mm
04:45 PM 90.6°F32.6°C 47.7°F8.7°C 23% 4.6 mph NNE7.4 kmh NNE 9.2 mph14.8 kmh 29.98 in1015.2 mb - 0.00 in0.0 mm 0.00 in0.0 mm
04:40 PM 91.4°F33.0°C 48.4°F9.1°C 23% 3.5 mph NW5.6 kmh NW 10.4 mph16.7 kmh 29.98 in1015.2 mb - 0.00 in0.0 mm 0.00 in0.0 mm
04:35 PM 91.8°F33.2°C 48.7°F9.3°C 23% 4.6 mph NW7.4 kmh NW 8.1 mph13.0 kmh 29.98 in1015.2 mb - 0.00 in0.0 mm 0.00 in0.0 mm
04:30 PM 91.4°F33.0°C 48.4°F9.1°C 23% 3.5 mph NW5.6 kmh NW 10.4 mph16.7 kmh 29.98 in1015.2 mb - 0.00 in0.0 mm 0.00 in0.0 mm
04:25 PM 91.8°F33.2°C 48.7°F9.3°C 23% 5.8 mph NNW9.3 kmh NNW 10.4 mph16.7 kmh 29.98 in1015.2 mb - 0.00 in0.0 mm 0.00 in0.0 mm
04:20 PM 91.8°F33.2°C 49.9°F9.9°C 24% 3.5 mph WNW5.6 kmh WNW 9.2 mph14.8 kmh 29.98 in1015.2 mb - 0.00 in0.0 mm 0.00 in0.0 mm
04:15 PM 91.1°F32.8°C 49.3°F9.6°C 24% 2.3 mph W3.7 kmh W 4.6 mph7.4 kmh 29.98 in1015.2 mb - 0.00 in0.0 mm 0.00 in0.0 mm
04:10 PM 90.6°F32.6°C 51.0°F10.6°C 26% 2.3 mph NNW3.7 kmh NNW 5.8 mph9.3 kmh 29.98 in1015.2 mb - 0.00 in0.0 mm 0.00 in0.0 mm
04:00 PM 90.7°F32.6°C 50.0°F10.0°C 25% 4.6 mph NNW7.4 kmh NNW 11.5 mph18.5 kmh 29.98 in1015.2 mb - 0.00 in0.0 mm 0.00 in0.0 mm
03:55 PM 90.5°F32.5°C 48.8°F9.3°C 24% 6.9 mph N11.1 kmh N 11.5 mph18.5 kmh 29.98 in1015.2 mb - 0.00 in0.0 mm 0.00 in0.0 mm
03:50 PM 90.8°F32.7°C 50.1°F10.1°C 25% 5.8 mph NW9.3 kmh NW 8.1 mph13.0 kmh 29.98 in1015.2 mb - 0.00 in0.0 mm 0.00 in0.0 mm
03:45 PM 90.9°F32.7°C 50.2°F10.1°C 25% 6.9 mph NW11.1 kmh NW 9.2 mph14.8 kmh 29.98 in1015.2 mb - 0.00 in0.0 mm 0.00 in0.0 mm
03:40 PM 90.6°F32.6°C 49.9°F9.9°C 25% 5.8 mph NW9.3 kmh NW 11.5 mph18.5 kmh 29.98 in1015.2 mb - 0.00 in0.0 mm 0.00 in0.0 mm
03:35 PM 90.4°F32.4°C 49.8°F9.9°C 25% 4.6 mph NW7.4 kmh NW 8.1 mph13.0 kmh 29.99 in1015.6 mb - 0.00 in0.0 mm 0.00 in0.0 mm
03:30 PM 90.8°F32.7°C 49.0°F9.4°C 24% 6.9 mph NW11.1 kmh NW 11.5 mph18.5 kmh 29.99 in1015.6 mb - 0.00 in0.0 mm 0.00 in0.0 mm
03:25 PM 90.8°F32.7°C 50.1°F10.1°C 25% 5.8 mph WNW9.3 kmh WNW 8.1 mph13.0 kmh 29.99 in1015.6 mb - 0.00 in0.0 mm 0.00 in0.0 mm
03:20 PM 91.2°F32.9°C 50.5°F10.3°C 25% 5.8 mph W9.3 kmh W 9.2 mph14.8 kmh 29.99 in1015.6 mb - 0.00 in0.0 mm 0.00 in0.0 mm
03:15 PM 90.2°F32.3°C 50.6°F10.3°C 26% 3.5 mph NW5.6 kmh NW 4.6 mph7.4 kmh 29.99 in1015.6 mb - 0.00 in0.0 mm 0.00 in0.0 mm
03:10 PM 90.3°F32.4°C 50.7°F10.4°C 26% 3.5 mph NNW5.6 kmh NNW 4.6 mph7.4 kmh 29.99 in1015.6 mb - 0.00 in0.0 mm 0.00 in0.0 mm
03:00 PM 89.9°F32.2°C 50.4°F10.2°C 26% 6.9 mph NW11.1 kmh NW 9.2 mph14.8 kmh 30.00 in1015.9 mb - 0.00 in0.0 mm 0.00 in0.0 mm
02:55 PM 88.8°F31.6°C 49.5°F9.7°C 26% 3.5 mph NNE5.6 kmh NNE 8.1 mph13.0 kmh 30.00 in1015.9 mb - 0.00 in0.0 mm 0.00 in0.0 mm
02:50 PM 89.2°F31.8°C 49.8°F9.9°C 26% 5.8 mph WNW9.3 kmh WNW 9.2 mph14.8 kmh 30.00 in1015.9 mb - 0.00 in0.0 mm 0.00 in0.0 mm
02:45 PM 89.8°F32.1°C 51.4°F10.8°C 27% 4.6 mph NW7.4 kmh NW 11.5 mph18.5 kmh 30.00 in1015.9 mb - 0.00 in0.0 mm 0.00 in0.0 mm
02:40 PM 90.2°F32.3°C 52.7°F11.5°C 28% 2.3 mph NW3.7 kmh NW 9.2 mph14.8 kmh 30.00 in1015.9 mb - 0.00 in0.0 mm 0.00 in0.0 mm
02:35 PM 89.6°F32.0°C 51.2°F10.7°C 27% 3.5 mph NNW5.6 kmh NNW 11.5 mph18.5 kmh 30.00 in1015.9 mb - 0.00 in0.0 mm 0.00 in0.0 mm
02:30 PM 88.9°F31.6°C 51.6°F10.9°C 28% 3.5 mph NNW5.6 kmh NNW 3.5 mph5.6 kmh 30.00 in1015.9 mb - 0.00 in0.0 mm 0.00 in0.0 mm
02:25 PM 88.6°F31.4°C 51.4°F10.8°C 28% 5.8 mph NW9.3 kmh NW 8.1 mph13.0 kmh 30.00 in1015.9 mb - 0.00 in0.0 mm 0.00 in0.0 mm
02:20 PM 89.2°F31.8°C 51.8°F11.0°C 28% 3.5 mph W5.6 kmh W 4.6 mph7.4 kmh 30.00 in1015.9 mb - 0.00 in0.0 mm 0.00 in0.0 mm
02:15 PM 89.6°F32.0°C 52.2°F11.2°C 28% 2.3 mph NW3.7 kmh NW 11.5 mph18.5 kmh 30.00 in1015.9 mb - 0.00 in0.0 mm 0.00 in0.0 mm
02:10 PM 88.6°F31.4°C 52.2°F11.2°C 29% 4.6 mph NW7.4 kmh NW 10.4 mph16.7 kmh 30.00 in1015.9 mb - 0.00 in0.0 mm 0.00 in0.0 mm
02:00 PM 88.2°F31.2°C 51.9°F11.1°C 29% 5.8 mph W9.3 kmh W 8.1 mph13.0 kmh 30.00 in1015.9 mb - 0.00 in0.0 mm 0.00 in0.0 mm
01:55 PM 87.9°F31.1°C 51.7°F10.9°C 29% 3.5 mph NW5.6 kmh NW 5.8 mph9.3 kmh 30.00 in1015.9 mb - 0.00 in0.0 mm 0.00 in0.0 mm
01:50 PM 87.5°F30.8°C 51.4°F10.8°C 29% 8.1 mph W13.0 kmh W 11.5 mph18.5 kmh 30.00 in1015.9 mb - 0.00 in0.0 mm 0.00 in0.0 mm
01:45 PM 87.3°F30.7°C 52.1°F11.2°C 30% 5.8 mph NW9.3 kmh NW 9.2 mph14.8 kmh 30.00 in1015.9 mb - 0.00 in0.0 mm 0.00 in0.0 mm
01:40 PM 86.7°F30.4°C 51.5°F10.8°C 30% 5.8 mph WNW9.3 kmh WNW 6.9 mph11.1 kmh 30.01 in1016.3 mb - 0.00 in0.0 mm 0.00 in0.0 mm
01:35 PM 87.6°F30.9°C 52.3°F11.3°C 30% 8.1 mph NW13.0 kmh NW 11.5 mph18.5 kmh 30.01 in1016.3 mb - 0.00 in0.0 mm 0.00 in0.0 mm
01:30 PM 87.8°F31.0°C 52.5°F11.4°C 30% 6.9 mph NW11.1 kmh NW 11.5 mph18.5 kmh 30.01 in1016.3 mb - 0.00 in0.0 mm 0.00 in0.0 mm
01:25 PM 88.3°F31.3°C 53.8°F12.1°C 31% 3.5 mph NW5.6 kmh NW 3.5 mph5.6 kmh 30.01 in1016.3 mb - 0.00 in0.0 mm 0.00 in0.0 mm
01:20 PM 86.6°F30.3°C 52.4°F11.3°C 31% 3.5 mph NW5.6 kmh NW 6.9 mph11.1 kmh 30.01 in1016.3 mb - 0.00 in0.0 mm 0.00 in0.0 mm
01:15 PM 86.7°F30.4°C 52.5°F11.4°C 31% 4.6 mph W7.4 kmh W 9.2 mph14.8 kmh 30.02 in1016.6 mb - 0.00 in0.0 mm 0.00 in0.0 mm
01:10 PM 86.1°F30.1°C 51.0°F10.6°C 30% 3.5 mph NW5.6 kmh NW 5.8 mph9.3 kmh 30.02 in1016.6 mb - 0.00 in0.0 mm 0.00 in0.0 mm
01:00 PM 87.1°F30.6°C 53.7°F12.1°C 32% 5.8 mph NW9.3 kmh NW 11.5 mph18.5 kmh 30.02 in1016.6 mb - 0.00 in0.0 mm 0.00 in0.0 mm
12:55 PM 87.1°F30.6°C 54.5°F12.5°C 33% 3.5 mph NW5.6 kmh NW 4.6 mph7.4 kmh 30.02 in1016.6 mb - 0.00 in0.0 mm 0.00 in0.0 mm
12:50 PM 86.5°F30.3°C 54.0°F12.2°C 33% 1.2 mph WNW1.9 kmh WNW 2.3 mph3.7 kmh 30.02 in1016.6 mb - 0.00 in0.0 mm 0.00 in0.0 mm
12:45 PM 85.8°F29.9°C 54.2°F12.3°C 34% 3.5 mph NNW5.6 kmh NNW 9.2 mph14.8 kmh 30.02 in1016.6 mb - 0.00 in0.0 mm 0.00 in0.0 mm
12:40 PM 85.4°F29.7°C 54.7°F12.6°C 35% 1.2 mph NW1.9 kmh NW 3.5 mph5.6 kmh 30.02 in1016.6 mb - 0.00 in0.0 mm 0.00 in0.0 mm
12:35 PM 85.1°F29.5°C 53.5°F11.9°C 34% 4.6 mph NW7.4 kmh NW 10.4 mph16.7 kmh 30.02 in1016.6 mb - 0.00 in0.0 mm 0.00 in0.0 mm
12:30 PM 85.1°F29.5°C 54.4°F12.4°C 35% 3.5 mph NW5.6 kmh NW 3.5 mph5.6 kmh 30.02 in1016.6 mb - 0.00 in0.0 mm 0.00 in0.0 mm
12:25 PM 84.9°F29.4°C 53.4°F11.9°C 34% 5.8 mph WNW9.3 kmh WNW 6.9 mph11.1 kmh 30.02 in1016.6 mb - 0.00 in0.0 mm 0.00 in0.0 mm
12:20 PM 84.5°F29.2°C 53.8°F12.1°C 35% 4.6 mph NW7.4 kmh NW 6.9 mph11.1 kmh 30.02 in1016.6 mb - 0.00 in0.0 mm 0.00 in0.0 mm
12:15 PM 84.3°F29.1°C 54.5°F12.5°C 36% 2.3 mph WNW3.7 kmh WNW 6.9 mph11.1 kmh 30.03 in1016.9 mb - 0.00 in0.0 mm 0.00 in0.0 mm
12:10 PM 83.8°F28.8°C 53.2°F11.8°C 35% 3.5 mph W5.6 kmh W 8.1 mph13.0 kmh 30.03 in1016.9 mb - 0.00 in0.0 mm 0.00 in0.0 mm
12:00 PM 83.1°F28.4°C 53.3°F11.8°C 36% 3.5 mph NW5.6 kmh NW 4.6 mph7.4 kmh 30.03 in1016.9 mb - 0.00 in0.0 mm 0.00 in0.0 mm
11:55 AM 84.4°F29.1°C 53.7°F12.1°C 35% 3.5 mph WNW5.6 kmh WNW 5.8 mph9.3 kmh 30.03 in1016.9 mb - 0.00 in0.0 mm 0.00 in0.0 mm
11:50 AM 83.4°F28.6°C 53.6°F12.0°C 36% 3.5 mph W5.6 kmh W 5.8 mph9.3 kmh 30.03 in1016.9 mb - 0.00 in0.0 mm 0.00 in0.0 mm
11:45 AM 82.9°F28.3°C 53.2°F11.8°C 36% 4.6 mph NW7.4 kmh NW 8.1 mph13.0 kmh 30.03 in1016.9 mb - 0.00 in0.0 mm 0.00 in0.0 mm
11:40 AM 83.1°F28.4°C 53.4°F11.9°C 36% 1.2 mph NW1.9 kmh NW 3.5 mph5.6 kmh 30.03 in1016.9 mb - 0.00 in0.0 mm 0.00 in0.0 mm
11:35 AM 82.6°F28.1°C 53.7°F12.1°C 37% 2.3 mph NNW3.7 kmh NNW 5.8 mph9.3 kmh 30.03 in1016.9 mb - 0.00 in0.0 mm 0.00 in0.0 mm
11:30 AM 82.1°F27.8°C 53.3°F11.8°C 37% 4.6 mph WNW7.4 kmh WNW 5.8 mph9.3 kmh 30.03 in1016.9 mb - 0.00 in0.0 mm 0.00 in0.0 mm
11:25 AM 82.6°F28.1°C 53.7°F12.1°C 37% 2.3 mph WNW3.7 kmh WNW 3.5 mph5.6 kmh 30.03 in1016.9 mb - 0.00 in0.0 mm 0.00 in0.0 mm
11:20 AM 82.1°F27.8°C 53.2°F11.8°C 37% 2.3 mph NW3.7 kmh NW 2.3 mph3.7 kmh 30.03 in1016.9 mb - 0.00 in0.0 mm 0.00 in0.0 mm
11:15 AM 81.6°F27.6°C 52.8°F11.6°C 37% 1.2 mph WNW1.9 kmh WNW 2.3 mph3.7 kmh 30.03 in1016.9 mb - 0.00 in0.0 mm 0.00 in0.0 mm
11:10 AM 81.3°F27.4°C 53.3°F11.8°C 38% 1.2 mph W1.9 kmh W 6.9 mph11.1 kmh 30.03 in1016.9 mb - 0.00 in0.0 mm 0.00 in0.0 mm
11:00 AM 80.6°F27.0°C 53.3°F11.8°C 39% 1.2 mph NW1.9 kmh NW 8.1 mph13.0 kmh 30.03 in1016.9 mb - 0.00 in0.0 mm 0.00 in0.0 mm
10:55 AM 80.1°F26.7°C 52.9°F11.6°C 39% 3.5 mph WSW5.6 kmh WSW 3.5 mph5.6 kmh 30.03 in1016.9 mb - 0.00 in0.0 mm 0.00 in0.0 mm
10:50 AM 80.5°F26.9°C 53.3°F11.8°C 39% 3.5 mph W5.6 kmh W 4.6 mph7.4 kmh 30.03 in1016.9 mb - 0.00 in0.0 mm 0.00 in0.0 mm
10:45 AM 80.7°F27.1°C 53.5°F11.9°C 39% 3.5 mph WNW5.6 kmh WNW 4.6 mph7.4 kmh 30.03 in1016.9 mb - 0.00 in0.0 mm 0.00 in0.0 mm
10:40 AM 79.0°F26.1°C 53.3°F11.8°C 41% 2.3 mph NW3.7 kmh NW 3.5 mph5.6 kmh 30.02 in1016.6 mb - 0.00 in0.0 mm 0.00 in0.0 mm
10:35 AM 79.5°F26.4°C 53.7°F12.1°C 41% 3.5 mph W5.6 kmh W 8.1 mph13.0 kmh 30.03 in1016.9 mb - 0.00 in0.0 mm 0.00 in0.0 mm
10:30 AM 79.9°F26.6°C 54.8°F12.7°C 42% 2.3 mph NW3.7 kmh NW 4.6 mph7.4 kmh 30.03 in1016.9 mb - 0.00 in0.0 mm 0.00 in0.0 mm
10:25 AM 80.0°F26.7°C 54.8°F12.7°C 42% 1.2 mph WNW1.9 kmh WNW 3.5 mph5.6 kmh 30.03 in1016.9 mb - 0.00 in0.0 mm 0.00 in0.0 mm
10:20 AM 79.9°F26.6°C 54.8°F12.7°C 42% 2.3 mph W3.7 kmh W 3.5 mph5.6 kmh 30.03 in1016.9 mb - 0.00 in0.0 mm 0.00 in0.0 mm
10:15 AM 79.1°F26.2°C 54.6°F12.6°C 43% 2.3 mph W3.7 kmh W 3.5 mph5.6 kmh 30.03 in1016.9 mb - 0.00 in0.0 mm 0.00 in0.0 mm
10:10 AM 79.3°F26.3°C 54.9°F12.7°C 43% 2.3 mph NW3.7 kmh NW 4.6 mph7.4 kmh 30.03 in1016.9 mb - 0.00 in0.0 mm 0.00 in0.0 mm
10:00 AM 78.0°F25.6°C 55.0°F12.8°C 45% 2.3 mph N3.7 kmh N 3.5 mph5.6 kmh 30.03 in1016.9 mb - 0.00 in0.0 mm 0.00 in0.0 mm
09:55 AM 76.8°F24.9°C 54.4°F12.4°C 46% 2.3 mph NW3.7 kmh NW 3.5 mph5.6 kmh 30.03 in1016.9 mb - 0.00 in0.0 mm 0.00 in0.0 mm
09:50 AM 76.5°F24.7°C 55.3°F12.9°C 48% 1.2 mph WNW1.9 kmh WNW 2.3 mph3.7 kmh 30.03 in1016.9 mb - 0.00 in0.0 mm 0.00 in0.0 mm
09:45 AM 76.2°F24.6°C 55.6°F13.1°C 49% Calm Calm 1.2 mph1.9 kmh 30.03 in1016.9 mb - 0.00 in0.0 mm 0.00 in0.0 mm
09:40 AM 75.6°F24.2°C 55.1°F12.8°C 49% 2.3 mph W3.7 kmh W 3.5 mph5.6 kmh 30.03 in1016.9 mb - 0.00 in0.0 mm 0.00 in0.0 mm
09:35 AM 75.9°F24.4°C 55.3°F12.9°C 49% 3.5 mph WSW5.6 kmh WSW 3.5 mph5.6 kmh 30.03 in1016.9 mb - 0.00 in0.0 mm 0.00 in0.0 mm
09:30 AM 75.0°F23.9°C 55.6°F13.1°C 51% 2.3 mph NW3.7 kmh NW 3.5 mph5.6 kmh 30.03 in1016.9 mb - 0.00 in0.0 mm 0.00 in0.0 mm
09:25 AM 74.8°F23.8°C 54.9°F12.7°C 50% 2.3 mph WNW3.7 kmh WNW 4.6 mph7.4 kmh 30.03 in1016.9 mb - 0.00 in0.0 mm 0.00 in0.0 mm
09:20 AM 74.7°F23.7°C 55.3°F12.9°C 51% 1.2 mph WNW1.9 kmh WNW 1.2 mph1.9 kmh 30.03 in1016.9 mb - 0.00 in0.0 mm 0.00 in0.0 mm
09:15 AM 73.7°F23.2°C 56.0°F13.3°C 54% Calm Calm 2.3 mph3.7 kmh 30.03 in1016.9 mb - 0.00 in0.0 mm 0.00 in0.0 mm
09:10 AM 72.9°F22.7°C 55.3°F12.9°C 54% 2.3 mph WSW3.7 kmh WSW 3.5 mph5.6 kmh 30.03 in1016.9 mb - 0.00 in0.0 mm 0.00 in0.0 mm
09:00 AM 72.4°F22.4°C 56.3°F13.5°C 57% Calm Calm 2.3 mph3.7 kmh 30.03 in1016.9 mb - 0.00 in0.0 mm 0.00 in0.0 mm
08:55 AM 71.8°F22.1°C 55.8°F13.2°C 57% Calm Calm 1.2 mph1.9 kmh 30.03 in1016.9 mb - 0.00 in0.0 mm 0.00 in0.0 mm
08:50 AM 71.5°F21.9°C 55.5°F13.1°C 57% 1.2 mph S1.9 kmh S 2.3 mph3.7 kmh 30.03 in1016.9 mb - 0.00 in0.0 mm 0.00 in0.0 mm
08:45 AM 71.5°F21.9°C 55.5°F13.1°C 57% 1.2 mph S1.9 kmh S 2.3 mph3.7 kmh 30.03 in1016.9 mb - 0.00 in0.0 mm 0.00 in0.0 mm
08:40 AM 71.5°F21.9°C 55.4°F13.0°C 57% 1.2 mph SSE1.9 kmh SSE 2.3 mph3.7 kmh 30.03 in1016.9 mb - 0.00 in0.0 mm 0.00 in0.0 mm
08:35 AM 71.4°F21.9°C 55.4°F13.0°C 57% 2.3 mph S3.7 kmh S 3.5 mph5.6 kmh 30.03 in1016.9 mb - 0.00 in0.0 mm 0.00 in0.0 mm
08:30 AM 71.5°F21.9°C 55.5°F13.1°C 57% 1.2 mph S1.9 kmh S 2.3 mph3.7 kmh 30.02 in1016.6 mb - 0.00 in0.0 mm 0.00 in0.0 mm
08:25 AM 71.9°F22.2°C 55.3°F12.9°C 56% Calm Calm 1.2 mph1.9 kmh 30.03 in1016.9 mb - 0.00 in0.0 mm 0.00 in0.0 mm
08:20 AM 71.9°F22.2°C 54.9°F12.7°C 55% Calm Calm 2.3 mph3.7 kmh 30.03 in1016.9 mb - 0.00 in0.0 mm 0.00 in0.0 mm
08:15 AM 71.7°F22.1°C 55.2°F12.9°C 56% Calm Calm -- 30.03 in1016.9 mb - 0.00 in0.0 mm 0.00 in0.0 mm
08:10 AM 71.5°F21.9°C 54.5°F12.5°C 55% Calm Calm -- 30.02 in1016.6 mb - 0.00 in0.0 mm 0.00 in0.0 mm
08:00 AM 71.8°F22.1°C 54.8°F12.7°C 55% Calm Calm -- 30.03 in1016.9 mb - 0.00 in0.0 mm 0.00 in0.0 mm
07:55 AM 72.1°F22.3°C 53.5°F11.9°C 52% Calm Calm 1.2 mph1.9 kmh 30.03 in1016.9 mb - 0.00 in0.0 mm 0.00 in0.0 mm
07:50 AM 71.3°F21.8°C 53.3°F11.8°C 53% Calm Calm -- 30.02 in1016.6 mb - 0.00 in0.0 mm 0.00 in0.0 mm
07:45 AM 70.6°F21.4°C 53.2°F11.8°C 54% 2.3 mph NW3.7 kmh NW 3.5 mph5.6 kmh 30.02 in1016.6 mb - 0.00 in0.0 mm 0.00 in0.0 mm
07:40 AM 70.3°F21.3°C 53.9°F12.2°C 56% Calm Calm 2.3 mph3.7 kmh 30.03 in1016.9 mb - 0.00 in0.0 mm 0.00 in0.0 mm
07:35 AM 70.3°F21.3°C 53.4°F11.9°C 55% Calm Calm 1.2 mph1.9 kmh 30.02 in1016.6 mb - 0.00 in0.0 mm 0.00 in0.0 mm
07:30 AM 70.0°F21.1°C 53.6°F12.0°C 56% Calm Calm -- 30.02 in1016.6 mb - 0.00 in0.0 mm 0.00 in0.0 mm
07:25 AM 69.6°F20.9°C 53.2°F11.8°C 56% Calm Calm 2.3 mph3.7 kmh 30.03 in1016.9 mb - 0.00 in0.0 mm 0.00 in0.0 mm
07:20 AM 69.1°F20.6°C 53.2°F11.8°C 57% Calm Calm -- 30.02 in1016.6 mb - 0.00 in0.0 mm 0.00 in0.0 mm
07:15 AM 68.4°F20.2°C 53.1°F11.7°C 58% Calm Calm 1.2 mph1.9 kmh 30.02 in1016.6 mb - 0.00 in0.0 mm 0.00 in0.0 mm
07:10 AM 67.8°F19.9°C 52.9°F11.6°C 59% Calm Calm -- 30.02 in1016.6 mb - 0.00 in0.0 mm 0.00 in0.0 mm
07:00 AM 66.6°F19.2°C 52.2°F11.2°C 60% 2.3 mph ENE3.7 kmh ENE 3.5 mph5.6 kmh 30.02 in1016.6 mb - 0.00 in0.0 mm 0.00 in0.0 mm
06:55 AM 65.9°F18.8°C 52.0°F11.1°C 61% Calm Calm -- 30.02 in1016.6 mb - 0.00 in0.0 mm 0.00 in0.0 mm
06:50 AM 65.3°F18.5°C 52.0°F11.1°C 62% Calm Calm -- 30.02 in1016.6 mb - 0.00 in0.0 mm 0.00 in0.0 mm
06:45 AM 64.7°F18.2°C 51.3°F10.7°C 62% 1.2 mph NNW1.9 kmh NNW 1.2 mph1.9 kmh 30.02 in1016.6 mb - 0.00 in0.0 mm 0.00 in0.0 mm
06:40 AM 64.1°F17.8°C 51.2°F10.7°C 63% Calm Calm -- 30.02 in1016.6 mb - 0.00 in0.0 mm 0.00 in0.0 mm
06:35 AM 63.6°F17.6°C 50.8°F10.4°C 63% Calm Calm 1.2 mph1.9 kmh 30.02 in1016.6 mb - 0.00 in0.0 mm 0.00 in0.0 mm
06:30 AM 63.2°F17.3°C 50.8°F10.4°C 64% 1.2 mph NW1.9 kmh NW 1.2 mph1.9 kmh 30.02 in1016.6 mb - 0.00 in0.0 mm 0.00 in0.0 mm
06:25 AM 63.1°F17.3°C 50.7°F10.4°C 64% Calm Calm -- 30.01 in1016.3 mb - 0.00 in0.0 mm 0.00 in0.0 mm
06:20 AM 63.1°F17.3°C 50.7°F10.4°C 64% Calm Calm 1.2 mph1.9 kmh 30.01 in1016.3 mb - 0.00 in0.0 mm 0.00 in0.0 mm
06:15 AM 63.1°F17.3°C 50.7°F10.4°C 64% Calm Calm -- 30.01 in1016.3 mb - 0.00 in0.0 mm 0.00 in0.0 mm
06:10 AM 63.1°F17.3°C 48.5°F9.2°C 59% Calm Calm -- 30.01 in1016.3 mb - 0.00 in0.0 mm 0.00 in0.0 mm
06:00 AM 67.4°F19.7°C 46.5°F8.1°C 47% 11.5 mph S18.5 kmh S 11.5 mph18.5 kmh 30.01 in1016.3 mb - 0.00 in0.0 mm 0.00 in0.0 mm
05:55 AM 67.3°F19.6°C 47.0°F8.3°C 48% 11.5 mph S18.5 kmh S 12.7 mph20.4 kmh 30.01 in1016.3 mb - 0.00 in0.0 mm 0.00 in0.0 mm
05:50 AM 67.1°F19.5°C 46.7°F8.2°C 48% 12.7 mph S20.4 kmh S 12.7 mph20.4 kmh 30.01 in1016.3 mb - 0.00 in0.0 mm 0.00 in0.0 mm
05:45 AM 66.7°F19.3°C 46.4°F8.0°C 48% 11.5 mph S18.5 kmh S 13.8 mph22.2 kmh 30.01 in1016.3 mb - 0.00 in0.0 mm 0.00 in0.0 mm
05:40 AM 66.6°F19.2°C 46.8°F8.2°C 49% 10.4 mph S16.7 kmh S 11.5 mph18.5 kmh 30.01 in1016.3 mb - 0.00 in0.0 mm 0.00 in0.0 mm
05:35 AM 66.7°F19.3°C 47.5°F8.6°C 50% 9.2 mph S14.8 kmh S 9.2 mph14.8 kmh 30.01 in1016.3 mb - 0.00 in0.0 mm 0.00 in0.0 mm
05:30 AM 67.0°F19.4°C 47.2°F8.4°C 49% 10.4 mph S16.7 kmh S 10.4 mph16.7 kmh 30.01 in1016.3 mb - 0.00 in0.0 mm 0.00 in0.0 mm
05:25 AM 67.4°F19.7°C 47.5°F8.6°C 49% 10.4 mph S16.7 kmh S 11.5 mph18.5 kmh 30.01 in1016.3 mb - 0.00 in0.0 mm 0.00 in0.0 mm
05:20 AM 67.6°F19.8°C 46.7°F8.2°C 47% 9.2 mph S14.8 kmh S 11.5 mph18.5 kmh 30.00 in1015.9 mb - 0.00 in0.0 mm 0.00 in0.0 mm
05:15 AM 67.7°F19.8°C 46.7°F8.2°C 47% 11.5 mph S18.5 kmh S 12.7 mph20.4 kmh 30.00 in1015.9 mb - 0.00 in0.0 mm 0.00 in0.0 mm
05:10 AM 67.8°F19.9°C 46.8°F8.2°C 47% 9.2 mph S14.8 kmh S 11.5 mph18.5 kmh 30.00 in1015.9 mb - 0.00 in0.0 mm 0.00 in0.0 mm
05:00 AM 67.8°F19.9°C 47.4°F8.6°C 48% 9.2 mph S14.8 kmh S 10.4 mph16.7 kmh 30.00 in1015.9 mb - 0.00 in0.0 mm 0.00 in0.0 mm
04:55 AM 67.8°F19.9°C 46.8°F8.2°C 47% 9.2 mph S14.8 kmh S 10.4 mph16.7 kmh 30.00 in1015.9 mb - 0.00 in0.0 mm 0.00 in0.0 mm
04:50 AM 67.8°F19.9°C 46.8°F8.2°C 47% 8.1 mph S13.0 kmh S 9.2 mph14.8 kmh 30.00 in1015.9 mb - 0.00 in0.0 mm 0.00 in0.0 mm
04:45 AM 67.7°F19.8°C 46.7°F8.2°C 47% 6.9 mph S11.1 kmh S 6.9 mph11.1 kmh 30.00 in1015.9 mb - 0.00 in0.0 mm 0.00 in0.0 mm
04:40 AM 67.4°F19.7°C 46.5°F8.1°C 47% 6.9 mph S11.1 kmh S 8.1 mph13.0 kmh 30.00 in1015.9 mb - 0.00 in0.0 mm 0.00 in0.0 mm
04:35 AM 67.4°F19.7°C 46.5°F8.1°C 47% 5.8 mph S9.3 kmh S 6.9 mph11.1 kmh 30.00 in1015.9 mb - 0.00 in0.0 mm 0.00 in0.0 mm
04:30 AM 67.4°F19.7°C 47.0°F8.3°C 48% 4.6 mph S7.4 kmh S 5.8 mph9.3 kmh 30.00 in1015.9 mb - 0.00 in0.0 mm 0.00 in0.0 mm
04:25 AM 67.8°F19.9°C 47.3°F8.5°C 48% 5.8 mph S9.3 kmh S 5.8 mph9.3 kmh 30.00 in1015.9 mb - 0.00 in0.0 mm 0.00 in0.0 mm
04:20 AM 68.1°F20.1°C 46.5°F8.1°C 46% 6.9 mph S11.1 kmh S 8.1 mph13.0 kmh 30.00 in1015.9 mb - 0.00 in0.0 mm 0.00 in0.0 mm
04:15 AM 68.2°F20.1°C 46.0°F7.8°C 45% 6.9 mph S11.1 kmh S 9.2 mph14.8 kmh 30.00 in1015.9 mb - 0.00 in0.0 mm 0.00 in0.0 mm
04:10 AM 68.3°F20.2°C 46.2°F7.9°C 45% 6.9 mph S11.1 kmh S 9.2 mph14.8 kmh 30.00 in1015.9 mb - 0.00 in0.0 mm 0.00 in0.0 mm
04:00 AM 68.8°F20.4°C 46.6°F8.1°C 45% 8.1 mph S13.0 kmh S 9.2 mph14.8 kmh 30.00 in1015.9 mb - 0.00 in0.0 mm 0.00 in0.0 mm
03:55 AM 69.0°F20.6°C 46.8°F8.2°C 45% 6.9 mph S11.1 kmh S 11.5 mph18.5 kmh 29.99 in1015.6 mb - 0.00 in0.0 mm 0.00 in0.0 mm
03:50 AM 68.9°F20.5°C 47.3°F8.5°C 46% 4.6 mph S7.4 kmh S 9.2 mph14.8 kmh 29.99 in1015.6 mb - 0.00 in0.0 mm 0.00 in0.0 mm
03:45 AM 69.1°F20.6°C 46.9°F8.3°C 45% 5.8 mph SSE9.3 kmh SSE 5.8 mph9.3 kmh 29.99 in1015.6 mb - 0.00 in0.0 mm 0.00 in0.0 mm
03:40 AM 69.3°F20.7°C 47.1°F8.4°C 45% 4.6 mph SSE7.4 kmh SSE 5.8 mph9.3 kmh 29.98 in1015.2 mb - 0.00 in0.0 mm 0.00 in0.0 mm
03:35 AM 69.6°F20.9°C 46.7°F8.2°C 44% 4.6 mph S7.4 kmh S 5.8 mph9.3 kmh 29.98 in1015.2 mb - 0.00 in0.0 mm 0.00 in0.0 mm
03:30 AM 69.9°F21.1°C 46.4°F8.0°C 43% 6.9 mph S11.1 kmh S 6.9 mph11.1 kmh 29.98 in1015.2 mb - 0.00 in0.0 mm 0.00 in0.0 mm
03:25 AM 69.9°F21.1°C 46.4°F8.0°C 43% 6.9 mph S11.1 kmh S 8.1 mph13.0 kmh 29.98 in1015.2 mb - 0.00 in0.0 mm 0.00 in0.0 mm
03:20 AM 70.1°F21.2°C 46.6°F8.1°C 43% 5.8 mph S9.3 kmh S 5.8 mph9.3 kmh 29.98 in1015.2 mb - 0.00 in0.0 mm 0.00 in0.0 mm
03:15 AM 70.3°F21.3°C 46.1°F7.8°C 42% 6.9 mph S11.1 kmh S 8.1 mph13.0 kmh 29.98 in1015.2 mb - 0.00 in0.0 mm 0.00 in0.0 mm
03:10 AM 70.5°F21.4°C 46.3°F7.9°C 42% 8.1 mph S13.0 kmh S 11.5 mph18.5 kmh 29.98 in1015.2 mb - 0.00 in0.0 mm 0.00 in0.0 mm
03:00 AM 70.9°F21.6°C 46.6°F8.1°C 42% 6.9 mph S11.1 kmh S 8.1 mph13.0 kmh 29.98 in1015.2 mb - 0.00 in0.0 mm 0.00 in0.0 mm
02:55 AM 71.2°F21.8°C 46.9°F8.3°C 42% 8.1 mph S13.0 kmh S 9.2 mph14.8 kmh 29.98 in1015.2 mb - 0.00 in0.0 mm 0.00 in0.0 mm
02:50 AM 71.3°F21.8°C 45.7°F7.6°C 40% 10.4 mph S16.7 kmh S 13.8 mph22.2 kmh 29.98 in1015.2 mb - 0.00 in0.0 mm 0.00 in0.0 mm
02:45 AM 71.7°F22.1°C 46.0°F7.8°C 40% 8.1 mph S13.0 kmh S 11.5 mph18.5 kmh 29.98 in1015.2 mb - 0.00 in0.0 mm 0.00 in0.0 mm
02:40 AM 72.0°F22.2°C 46.4°F8.0°C 40% 9.2 mph S14.8 kmh S 11.5 mph18.5 kmh 29.98 in1015.2 mb - 0.00 in0.0 mm 0.00 in0.0 mm
02:35 AM 72.0°F22.2°C 45.7°F7.6°C 39% 11.5 mph S18.5 kmh S 11.5 mph18.5 kmh 29.98 in1015.2 mb - 0.00 in0.0 mm 0.00 in0.0 mm
02:30 AM 72.0°F22.2°C 45.7°F7.6°C 39% 10.4 mph S16.7 kmh S 11.5 mph18.5 kmh 29.98 in1015.2 mb - 0.00 in0.0 mm 0.00 in0.0 mm
02:25 AM 72.1°F22.3°C 45.7°F7.6°C 39% 8.1 mph S13.0 kmh S 11.5 mph18.5 kmh 29.98 in1015.2 mb - 0.00 in0.0 mm 0.00 in0.0 mm
02:20 AM 72.1°F22.3°C 45.8°F7.7°C 39% 6.9 mph S11.1 kmh S 9.2 mph14.8 kmh 29.98 in1015.2 mb - 0.00 in0.0 mm 0.00 in0.0 mm
02:15 AM 72.2°F22.3°C 45.9°F7.7°C 39% 6.9 mph S11.1 kmh S 9.2 mph14.8 kmh 29.98 in1015.2 mb - 0.00 in0.0 mm 0.00 in0.0 mm
02:10 AM 72.3°F22.4°C 46.0°F7.8°C 39% 8.1 mph S13.0 kmh S 8.1 mph13.0 kmh 29.98 in1015.2 mb - 0.00 in0.0 mm 0.00 in0.0 mm
02:00 AM 72.4°F22.4°C 46.0°F7.8°C 39% 8.1 mph S13.0 kmh S 9.2 mph14.8 kmh 29.98 in1015.2 mb - 0.00 in0.0 mm 0.00 in0.0 mm
01:55 AM 72.6°F22.6°C 45.5°F7.5°C 38% 8.1 mph S13.0 kmh S 8.1 mph13.0 kmh 29.98 in1015.2 mb - 0.00 in0.0 mm 0.00 in0.0 mm
01:50 AM 72.6°F22.6°C 46.2°F7.9°C 39% 6.9 mph S11.1 kmh S 8.1 mph13.0 kmh 29.98 in1015.2 mb - 0.00 in0.0 mm 0.00 in0.0 mm
01:45 AM 72.7°F22.6°C 46.3°F7.9°C 39% 9.2 mph S14.8 kmh S 9.2 mph14.8 kmh 29.98 in1015.2 mb - 0.00 in0.0 mm 0.00 in0.0 mm
01:40 AM 72.8°F22.7°C 46.4°F8.0°C 39% 9.2 mph S14.8 kmh S 10.4 mph16.7 kmh 29.98 in1015.2 mb - 0.00 in0.0 mm 0.00 in0.0 mm
01:35 AM 72.9°F22.7°C 46.5°F8.1°C 39% 9.2 mph S14.8 kmh S 11.5 mph18.5 kmh 29.98 in1015.2 mb - 0.00 in0.0 mm 0.00 in0.0 mm
01:30 AM 72.6°F22.6°C 46.2°F7.9°C 39% 10.4 mph S16.7 kmh S 15.0 mph24.1 kmh 29.97 in1014.9 mb - 0.00 in0.0 mm 0.00 in0.0 mm
01:25 AM 72.0°F22.2°C 48.3°F9.1°C 43% 8.1 mph S13.0 kmh S 10.4 mph16.7 kmh 29.98 in1015.2 mb - 0.00 in0.0 mm 0.00 in0.0 mm
01:20 AM 71.8°F22.1°C 48.7°F9.3°C 44% 8.1 mph SSW13.0 kmh SSW 10.4 mph16.7 kmh 29.98 in1015.2 mb - 0.00 in0.0 mm 0.00 in0.0 mm
01:15 AM 72.1°F22.3°C 49.6°F9.8°C 45% 8.1 mph SSW13.0 kmh SSW 8.1 mph13.0 kmh 29.98 in1015.2 mb - 0.00 in0.0 mm 0.00 in0.0 mm
01:10 AM 72.2°F22.3°C 49.1°F9.5°C 44% 8.1 mph SSW13.0 kmh SSW 9.2 mph14.8 kmh 29.98 in1015.2 mb - 0.00 in0.0 mm 0.00 in0.0 mm
01:00 AM 72.5°F22.5°C 49.4°F9.7°C 44% 9.2 mph SSW14.8 kmh SSW 10.4 mph16.7 kmh 29.98 in1015.2 mb - 0.00 in0.0 mm 0.00 in0.0 mm
12:55 AM 72.8°F22.7°C 50.2°F10.1°C 45% 9.2 mph SSW14.8 kmh SSW 10.4 mph16.7 kmh 29.98 in1015.2 mb - 0.00 in0.0 mm 0.00 in0.0 mm
12:50 AM 73.1°F22.8°C 49.8°F9.9°C 44% 10.4 mph SSW16.7 kmh SSW 11.5 mph18.5 kmh 29.98 in1015.2 mb - 0.00 in0.0 mm 0.00 in0.0 mm
12:45 AM 73.3°F22.9°C 49.5°F9.7°C 43% 10.4 mph SSW16.7 kmh SSW 11.5 mph18.5 kmh 29.98 in1015.2 mb - 0.00 in0.0 mm 0.00 in0.0 mm
12:40 AM 73.5°F23.1°C 49.0°F9.4°C 42% 11.5 mph SSW18.5 kmh SSW 12.7 mph20.4 kmh 29.98 in1015.2 mb - 0.00 in0.0 mm 0.00 in0.0 mm
12:35 AM 73.4°F23.0°C 48.9°F9.4°C 42% 11.5 mph SSW18.5 kmh SSW 12.7 mph20.4 kmh 29.98 in1015.2 mb - 0.00 in0.0 mm 0.00 in0.0 mm
12:30 AM 73.6°F23.1°C 50.3°F10.2°C 44% 11.5 mph SW18.5 kmh SW 11.5 mph18.5 kmh 29.98 in1015.2 mb - 0.00 in0.0 mm 0.00 in0.0 mm
12:25 AM 74.0°F23.3°C 49.4°F9.7°C 42% 12.7 mph SSW20.4 kmh SSW 12.7 mph20.4 kmh 29.98 in1015.2 mb - 0.00 in0.0 mm 0.00 in0.0 mm
12:20 AM 74.0°F23.3°C 47.4°F8.6°C 39% 13.8 mph S22.2 kmh S 15.0 mph24.1 kmh 29.98 in1015.2 mb - 0.00 in0.0 mm 0.00 in0.0 mm
12:15 AM 73.7°F23.2°C 47.2°F8.4°C 39% 13.8 mph S22.2 kmh S 17.3 mph27.8 kmh 29.98 in1015.2 mb - 0.00 in0.0 mm 0.00 in0.0 mm
12:10 AM 73.7°F23.2°C 47.9°F8.8°C 40% 12.7 mph S20.4 kmh S 13.8 mph22.2 kmh 29.98 in1015.2 mb - 0.00 in0.0 mm 0.00 in0.0 mm
12:00 AM 73.7°F23.2°C 47.9°F8.8°C 40% 12.7 mph S20.4 kmh S 16.1 mph25.9 kmh 29.98 in1015.2 mb - 0.00 in0.0 mm 0.00 in0.0 mm